createdAt,value
2022-08-17T00:01:56.206Z,99464.12
2022-08-17T00:04:49.909Z,99464.37
2022-08-17T00:07:38.796Z,99465.59
2022-08-17T00:10:27.867Z,99468.46
2022-08-17T00:13:28.376Z,99469.52
2022-08-17T00:16:56.156Z,99466.63
2022-08-17T00:19:42.699Z,99465.20
2022-08-17T00:22:32.142Z,99463.91
2022-08-17T00:25:23.975Z,99466.64
2022-08-17T00:28:15.227Z,99467.95
2022-08-17T00:31:07.332Z,99468.50
2022-08-17T00:33:55.674Z,99475.05
2022-08-17T00:36:43.717Z,99470.01
2022-08-17T00:39:31.873Z,99470.40
2022-08-17T00:42:20.450Z,99473.45
2022-08-17T00:45:12.590Z,99476.26
2022-08-17T00:48:00.284Z,99477.63
2022-08-17T00:51:00.149Z,99477.02
2022-08-17T00:54:00.334Z,99473.13
2022-08-17T00:57:01.167Z,99477.55
2022-08-17T01:00:02.953Z,99479.10
2022-08-17T01:02:57.041Z,99477.20
2022-08-17T01:05:48.644Z,99475.41
2022-08-17T01:08:38.914Z,99471.60
2022-08-17T01:11:29.579Z,99473.61
2022-08-17T01:14:19.684Z,79576.27
2022-08-17T01:17:09.019Z,99471.09
2022-08-17T01:19:56.972Z,99468.20
2022-08-17T01:22:45.515Z,99471.95
2022-08-17T01:25:33.832Z,79580.95
2022-08-17T01:28:52.947Z,99475.54
2022-08-17T01:31:39.080Z,39790.10
2022-08-17T01:34:36.839Z,19895.00
2022-08-17T01:37:40.544Z,99478.70
2022-08-17T01:40:45.896Z,99479.10
2022-08-17T01:43:47.710Z,99475.63
2022-08-17T01:46:37.580Z,79578.36
2022-08-17T01:49:25.646Z,-1.00
2022-08-17T01:52:14.111Z,-1.00
2022-08-17T01:55:05.473Z,59681.87
2022-08-17T01:57:53.139Z,19893.02
2022-08-17T02:00:59.392Z,59680.98
2022-08-17T02:03:53.142Z,99470.56
2022-08-17T02:06:53.239Z,99469.05
2022-08-17T02:09:44.219Z,99471.02
2022-08-17T02:12:40.498Z,99472.23
2022-08-17T02:15:29.380Z,99469.99
2022-08-17T02:18:17.672Z,99473.33
2022-08-17T02:21:07.338Z,99471.35
2022-08-17T02:23:56.436Z,99470.60
2022-08-17T02:26:45.027Z,99469.60
2022-08-17T02:29:32.963Z,99471.73
2022-08-17T02:32:27.595Z,99464.23
2022-08-17T02:35:21.964Z,99467.05
2022-08-17T02:38:10.505Z,99464.50
2022-08-17T02:40:59.902Z,99466.19
2022-08-17T02:43:49.349Z,99464.75
2022-08-17T02:46:37.491Z,99466.17
2022-08-17T02:49:31.149Z,99467.05
2022-08-17T02:52:42.697Z,99462.09
2022-08-17T02:55:38.947Z,99463.70
2022-08-17T02:58:35.485Z,99463.55
2022-08-17T03:01:24.872Z,99464.36
2022-08-17T03:04:12.942Z,99467.70
2022-08-17T03:07:01.190Z,99465.17
2022-08-17T03:09:49.129Z,99465.27
2022-08-17T03:12:41.826Z,99472.66
2022-08-17T03:15:34.320Z,99474.16
2022-08-17T03:18:25.706Z,99480.44
2022-08-17T03:21:14.029Z,99485.52
2022-08-17T03:24:09.022Z,99483.96
2022-08-17T03:26:57.153Z,99481.05
2022-08-17T03:29:45.013Z,99477.58
2022-08-17T03:32:43.428Z,99478.08
2022-08-17T03:35:34.110Z,99477.61
2022-08-17T03:38:22.362Z,99483.90
2022-08-17T03:41:11.163Z,99483.80
2022-08-17T03:43:59.633Z,99484.80
2022-08-17T03:47:05.987Z,99485.74
2022-08-17T03:50:12.558Z,99490.25
2022-08-17T03:53:27.738Z,99489.55
2022-08-17T03:56:34.313Z,99492.63
2022-08-17T03:59:23.290Z,99494.74
2022-08-17T04:02:33.135Z,99490.89
2022-08-17T04:05:21.882Z,99490.35
2022-08-17T04:08:12.358Z,99495.25
2022-08-17T04:11:01.568Z,99499.64
2022-08-17T04:13:49.838Z,99499.91
2022-08-17T04:16:38.041Z,99501.91
2022-08-17T04:19:26.185Z,99503.83
2022-08-17T04:22:31.074Z,79606.30
2022-08-17T04:25:22.042Z,99508.03
2022-08-17T04:28:14.621Z,99510.39
2022-08-17T04:31:04.970Z,99513.53
2022-08-17T04:33:55.499Z,99511.96
2022-08-17T04:36:50.254Z,99515.25
2022-08-17T04:39:38.151Z,99516.94
2022-08-17T04:42:26.043Z,99520.73
2022-08-17T04:45:14.084Z,99513.49
2022-08-17T04:48:02.895Z,99517.31
2022-08-17T04:50:51.840Z,99516.69
2022-08-17T04:53:44.483Z,99516.20
2022-08-17T04:56:35.962Z,99515.79
2022-08-17T04:59:24.053Z,99519.70
2022-08-17T05:02:14.308Z,99522.52
2022-08-17T05:05:02.759Z,99524.08
2022-08-17T05:07:56.751Z,99526.30
2022-08-17T05:10:45.784Z,99527.20
2022-08-17T05:13:34.049Z,99530.90
2022-08-17T05:16:24.038Z,99529.39
2022-08-17T05:19:14.164Z,99527.38
2022-08-17T05:22:08.256Z,99528.46
2022-08-17T05:24:56.264Z,99530.60
2022-08-17T05:27:45.585Z,99539.11
2022-08-17T05:30:35.500Z,99540.98
2022-08-17T05:33:31.878Z,99543.27
2022-08-17T05:36:42.824Z,99542.98
2022-08-17T05:39:27.567Z,99549.02
2022-08-17T05:42:19.966Z,99550.58
2022-08-17T05:45:10.183Z,99550.49
2022-08-17T05:47:58.094Z,99550.00
2022-08-17T05:51:28.242Z,99553.85
2022-08-17T05:54:29.691Z,99557.39
2022-08-17T05:57:47.709Z,99561.30
2022-08-17T06:01:27.385Z,99562.63
2022-08-17T06:04:47.259Z,99568.00
2022-08-17T06:07:40.379Z,99562.55
2022-08-17T06:10:52.423Z,99567.44
2022-08-17T06:13:50.990Z,99567.09
2022-08-17T06:16:46.629Z,99564.98
2022-08-17T06:19:55.068Z,99576.20
2022-08-17T06:22:52.444Z,99579.17
2022-08-17T06:25:51.613Z,99581.70
2022-08-17T06:28:50.448Z,99582.95
2022-08-17T06:31:40.575Z,99577.31
2022-08-17T06:34:30.010Z,99575.30
2022-08-17T06:37:48.968Z,99570.08
2022-08-17T06:40:55.486Z,99571.25
2022-08-17T06:43:56.864Z,99567.13
2022-08-17T06:46:51.102Z,99574.14
2022-08-17T06:50:07.351Z,99573.94
2022-08-17T06:53:26.154Z,99570.27
2022-08-17T06:56:53.547Z,99566.48
2022-08-17T07:00:20.758Z,99564.19
2022-08-17T07:03:09.220Z,99557.79
2022-08-17T07:06:17.724Z,99557.52
2022-08-17T07:09:28.249Z,99556.27
2022-08-17T07:12:24.330Z,99560.51
2022-08-17T07:15:43.159Z,99560.59
2022-08-17T07:18:33.342Z,99567.31
2022-08-17T07:21:26.673Z,99567.35
2022-08-17T07:24:44.746Z,99567.74
2022-08-17T07:27:45.413Z,99570.70
2022-08-17T07:30:47.016Z,99568.77
2022-08-17T07:33:37.195Z,99562.48
2022-08-17T07:36:30.009Z,99562.62
2022-08-17T07:39:28.185Z,99562.08
2022-08-17T07:42:16.033Z,99564.14
2022-08-17T07:45:24.275Z,99558.94
2022-08-17T07:48:26.128Z,99559.60
2022-08-17T07:51:27.910Z,99554.52
2022-08-17T07:54:15.825Z,99552.09
2022-08-17T07:57:15.552Z,99547.52
2022-08-17T08:00:29.169Z,99543.72
2022-08-17T08:03:31.997Z,99544.73
2022-08-17T08:06:26.520Z,99547.63
2022-08-17T08:09:29.286Z,99544.11
2022-08-17T08:12:32.725Z,99544.98
2022-08-17T08:15:33.443Z,99551.23
2022-08-17T08:18:54.943Z,99547.21
2022-08-17T08:22:06.270Z,99544.83
2022-08-17T08:25:25.600Z,99548.34
2022-08-17T08:28:51.349Z,99553.73
2022-08-17T08:32:06.411Z,99553.05
2022-08-17T08:35:06.898Z,99555.40
2022-08-17T08:38:10.990Z,99559.91
2022-08-17T08:41:38.620Z,99560.33
2022-08-17T08:45:00.883Z,99553.60
2022-08-17T08:48:46.160Z,99549.64
2022-08-17T08:51:42.999Z,99551.58
2022-08-17T08:54:35.791Z,99554.60
2022-08-17T08:57:36.707Z,99561.25
2022-08-17T09:00:27.509Z,99559.54
2022-08-17T09:03:51.922Z,99566.20
2022-08-17T09:07:15.408Z,99568.15
2022-08-17T09:10:12.562Z,99565.90
2022-08-17T09:13:22.859Z,99566.86
2022-08-17T09:16:39.513Z,99570.16
2022-08-17T09:20:27.164Z,99563.35
2022-08-17T09:23:39.189Z,99574.38
2022-08-17T09:27:13.634Z,99569.52
2022-08-17T09:30:10.028Z,99566.61
2022-08-17T09:33:06.577Z,99564.33
2022-08-17T09:36:10.132Z,99566.16
2022-08-17T09:39:29.357Z,99564.04
2022-08-17T09:42:38.869Z,99558.96
2022-08-17T09:45:35.649Z,99555.80
2022-08-17T09:48:43.810Z,99551.33
2022-08-17T09:51:46.102Z,99549.23
2022-08-17T09:54:40.474Z,99557.46
2022-08-17T09:57:47.717Z,99555.13
2022-08-17T10:00:49.552Z,99550.70
2022-08-17T10:03:59.388Z,99550.07
2022-08-17T10:06:58.812Z,99548.26
2022-08-17T10:10:03.083Z,99550.56
2022-08-17T10:13:30.799Z,99553.14
2022-08-17T10:16:41.233Z,99552.92
2022-08-17T10:20:03.534Z,99552.09
2022-08-17T10:23:31.500Z,99549.40
2022-08-17T10:26:27.027Z,99549.86
2022-08-17T10:29:53.730Z,99549.45
2022-08-17T10:33:00.123Z,99547.77
2022-08-17T10:36:22.024Z,99547.05
2022-08-17T10:39:54.302Z,99549.39
2022-08-17T10:43:00.853Z,99556.53
2022-08-17T10:46:21.548Z,99564.73
2022-08-17T10:49:21.368Z,99562.83
2022-08-17T10:52:27.928Z,99563.41
2022-08-17T10:55:19.001Z,99569.56
2022-08-17T10:59:01.514Z,99561.47
2022-08-17T11:01:49.458Z,99559.62
2022-08-17T11:04:57.214Z,99550.79
2022-08-17T11:08:21.982Z,99559.72
2022-08-17T11:11:36.057Z,99554.77
2022-08-17T11:14:36.315Z,99554.33
2022-08-17T11:18:01.748Z,99560.30
2022-08-17T11:21:27.450Z,99559.17
2022-08-17T11:24:43.448Z,99560.41
2022-08-17T11:27:36.425Z,99554.72
2022-08-17T11:30:48.922Z,99558.85
2022-08-17T11:33:45.129Z,99560.08
2022-08-17T11:36:46.880Z,99563.45
2022-08-17T11:40:34.395Z,99561.83
2022-08-17T11:43:57.475Z,99558.13
2022-08-17T11:47:30.089Z,99552.33
2022-08-17T11:51:16.304Z,99554.06
2022-08-17T11:54:33.239Z,99565.02
2022-08-17T11:57:29.458Z,99556.06
2022-08-17T12:00:45.238Z,99560.34
2022-08-17T12:03:33.521Z,99563.05
2022-08-17T12:06:30.330Z,99565.18
2022-08-17T12:09:27.624Z,99566.50
2022-08-17T12:12:29.824Z,99561.94
2022-08-17T12:15:29.135Z,99561.63
2022-08-17T12:18:32.448Z,99560.56
2022-08-17T12:21:50.745Z,99564.61
2022-08-17T12:24:55.518Z,99568.05
2022-08-17T12:28:06.385Z,99569.59
2022-08-17T12:31:01.655Z,99577.59
2022-08-17T12:33:54.254Z,99582.08
2022-08-17T12:36:42.216Z,99579.46
2022-08-17T12:39:33.962Z,99580.02
2022-08-17T12:42:37.594Z,99580.73
2022-08-17T12:45:31.315Z,99587.18
2022-08-17T12:48:26.339Z,99588.27
2022-08-17T12:51:14.589Z,99593.12
2022-08-17T12:54:03.021Z,99591.95
2022-08-17T12:56:51.641Z,99584.90
2022-08-17T12:59:49.319Z,99586.87
2022-08-17T13:02:53.860Z,99583.36
2022-08-17T13:05:54.984Z,99586.17
2022-08-17T13:08:48.212Z,99583.08
2022-08-17T13:11:36.204Z,99582.73
2022-08-17T13:14:24.313Z,99579.50
2022-08-17T13:17:14.044Z,99582.98
2022-08-17T13:20:05.168Z,99584.84
2022-08-17T13:23:01.991Z,99587.18
2022-08-17T13:26:03.312Z,99588.94
2022-08-17T13:28:51.948Z,99588.26
2022-08-17T13:31:52.413Z,99589.41
2022-08-17T13:35:14.256Z,99589.91
2022-08-17T13:38:36.595Z,99587.59
2022-08-17T13:41:37.653Z,99590.82
2022-08-17T13:44:40.588Z,99591.17
2022-08-17T13:47:29.088Z,99592.31
2022-08-17T13:50:21.877Z,99588.15
2022-08-17T13:53:22.746Z,99588.41
2022-08-17T13:56:39.645Z,99587.49
2022-08-17T13:59:54.992Z,99592.41
2022-08-17T14:02:43.847Z,99591.84
2022-08-17T14:05:32.574Z,99590.77
2022-08-17T14:08:21.011Z,99586.13
2022-08-17T14:11:09.130Z,99583.99
2022-08-17T14:13:57.118Z,99592.02
2022-08-17T14:16:45.483Z,99587.62
2022-08-17T14:19:33.030Z,99586.14
2022-08-17T14:22:35.873Z,99587.40
2022-08-17T14:25:28.336Z,99587.60
2022-08-17T14:28:17.274Z,99589.42
2022-08-17T14:31:08.543Z,99587.84
2022-08-17T14:33:59.257Z,99588.79
2022-08-17T14:36:48.644Z,99590.80
2022-08-17T14:39:36.733Z,99592.57
2022-08-17T14:42:27.871Z,99587.79
2022-08-17T14:45:29.938Z,99590.79
2022-08-17T14:48:22.041Z,99586.98
2022-08-17T14:51:09.949Z,99587.31
2022-08-17T14:53:57.798Z,99583.02
2022-08-17T14:56:47.325Z,99583.23
2022-08-17T14:59:45.036Z,99584.55
2022-08-17T15:02:48.314Z,99582.80
2022-08-17T15:05:39.268Z,99579.86
2022-08-17T15:08:28.519Z,99579.05
2022-08-17T15:11:17.165Z,99572.44
2022-08-17T15:14:05.342Z,99579.59
2022-08-17T15:16:53.152Z,99580.04
2022-08-17T15:19:41.218Z,99575.02
2022-08-17T15:22:29.289Z,99572.27
2022-08-17T15:25:19.329Z,99574.89
2022-08-17T15:28:07.967Z,99572.76
2022-08-17T15:30:55.731Z,99571.86
2022-08-17T15:33:45.102Z,99575.55
2022-08-17T15:36:37.622Z,99574.64
2022-08-17T15:39:28.763Z,99579.96
2022-08-17T15:42:23.551Z,99587.42
2022-08-17T15:45:16.657Z,99585.16
2022-08-17T15:48:04.788Z,99584.91
2022-08-17T15:50:53.253Z,99579.23
2022-08-17T15:53:45.018Z,99579.76
2022-08-17T16:00:17.647Z,99575.70
2022-08-17T16:03:45.668Z,99576.48
2022-08-17T16:06:15.015Z,99574.02
2022-08-17T16:09:05.169Z,99574.46
2022-08-17T16:11:56.382Z,99575.86
2022-08-17T16:14:47.148Z,99581.14
2022-08-17T16:17:39.533Z,99583.63
2022-08-17T16:20:30.746Z,99585.64
2022-08-17T16:23:23.071Z,99588.08
2022-08-17T16:26:11.113Z,99593.91
2022-08-17T16:29:02.075Z,99601.16
2022-08-17T16:31:50.483Z,99597.60
2022-08-17T16:34:38.217Z,99595.58
2022-08-17T16:37:26.321Z,99594.95
2022-08-17T16:40:17.204Z,99595.62
2022-08-17T16:43:10.727Z,99591.23
2022-08-17T16:46:00.942Z,99586.69
2022-08-17T16:48:49.287Z,99588.80
2022-08-17T16:51:37.771Z,99591.35
2022-08-17T16:54:26.827Z,99593.21
2022-08-17T16:57:17.614Z,99586.73
2022-08-17T17:00:11.887Z,99589.14
2022-08-17T17:03:19.654Z,99594.16
2022-08-17T17:06:13.799Z,99602.94
2022-08-17T17:09:11.298Z,99603.42
2022-08-17T17:12:03.288Z,99602.06
2022-08-17T17:14:52.396Z,99600.46
2022-08-17T17:17:40.811Z,99596.09
2022-08-17T17:20:55.827Z,99601.27
2022-08-17T17:24:00.430Z,99605.65
2022-08-17T17:27:13.012Z,99609.70
2022-08-17T17:30:35.209Z,99611.70
2022-08-17T17:33:48.543Z,99611.15
2022-08-17T17:36:56.405Z,99612.27
2022-08-17T17:39:56.987Z,99616.02
2022-08-17T17:42:45.843Z,99623.23
2022-08-17T17:46:26.730Z,99622.73
2022-08-17T17:49:20.507Z,99630.33
2022-08-17T17:52:32.206Z,99631.45
2022-08-17T17:56:29.668Z,99630.48
2022-08-17T17:59:47.648Z,99630.42
2022-08-17T18:03:15.601Z,99625.82
2022-08-17T18:06:24.768Z,99633.58
2022-08-17T18:09:34.059Z,99634.06
2022-08-17T18:12:56.099Z,99635.33
2022-08-17T18:15:52.445Z,99637.41
2022-08-17T18:18:52.475Z,99635.49
2022-08-17T18:21:46.047Z,99643.34
2022-08-17T18:24:41.348Z,99643.17
2022-08-17T18:27:37.941Z,99647.13
2022-08-17T18:30:29.043Z,99643.78
2022-08-17T18:33:26.667Z,99655.46
2022-08-17T18:36:52.830Z,99650.95
2022-08-17T18:39:55.244Z,99648.52
2022-08-17T18:43:12.547Z,99647.38
2022-08-17T18:46:28.046Z,99648.46
2022-08-17T18:49:20.054Z,99654.29
2022-08-17T18:52:24.354Z,99656.23
2022-08-17T18:55:31.480Z,99659.50
2022-08-17T18:58:25.684Z,99660.80
2022-08-17T19:01:21.665Z,99659.95
2022-08-17T19:05:01.298Z,99654.98
2022-08-17T19:07:49.868Z,99655.20
2022-08-17T19:10:46.101Z,99654.46
2022-08-17T19:14:10.994Z,99655.98
2022-08-17T19:17:23.799Z,99665.86
2022-08-17T19:20:55.756Z,99676.45
2022-08-17T19:24:00.857Z,99678.50
2022-08-17T19:27:42.037Z,99688.88
2022-08-17T19:30:36.288Z,99693.86
2022-08-17T19:33:24.837Z,99702.33
2022-08-17T19:36:22.456Z,99695.70
2022-08-17T19:39:17.155Z,99687.80
2022-08-17T19:42:31.781Z,99689.73
2022-08-17T19:45:50.324Z,99697.85
2022-08-17T19:49:11.877Z,99694.16
2022-08-17T19:52:53.912Z,99694.92
2022-08-17T19:56:34.340Z,99702.64
2022-08-17T19:59:49.008Z,99710.89
2022-08-17T20:02:52.211Z,99714.77
2022-08-17T20:06:11.889Z,99714.20
2022-08-17T20:09:29.805Z,99713.02
2022-08-17T20:12:31.228Z,99705.89
2022-08-17T20:15:30.194Z,99699.77
2022-08-17T20:18:34.052Z,99699.45
2022-08-17T20:21:34.971Z,99695.71
2022-08-17T20:25:01.125Z,99688.13
2022-08-17T20:28:03.840Z,99682.45
2022-08-17T20:30:56.439Z,99682.19
2022-08-17T20:33:45.368Z,99683.19
2022-08-17T20:36:56.302Z,99679.98
2022-08-17T20:39:52.697Z,99691.06
2022-08-17T20:42:41.113Z,99692.84
2022-08-17T20:46:02.052Z,99701.02
2022-08-17T20:48:55.460Z,99704.09
2022-08-17T20:52:00.777Z,99703.23
2022-08-17T20:54:54.203Z,99710.27
2022-08-17T20:57:47.478Z,99711.30
2022-08-17T21:01:01.694Z,99703.60
2022-08-17T21:03:52.506Z,99698.77
2022-08-17T21:07:25.423Z,99699.21
2022-08-17T21:10:24.311Z,99698.47
2022-08-17T21:13:15.538Z,99696.87
2022-08-17T21:16:38.395Z,99699.60
2022-08-17T21:20:08.129Z,99697.84
2022-08-17T21:23:22.402Z,99693.07
2022-08-17T21:26:50.491Z,99688.89
2022-08-17T21:30:21.357Z,99686.45
2022-08-17T21:33:25.132Z,99688.98
2022-08-17T21:36:12.929Z,99684.31
2022-08-17T21:39:10.035Z,99684.34
2022-08-17T21:41:58.846Z,99687.16
2022-08-17T21:44:50.515Z,99688.59
2022-08-17T21:47:43.787Z,99691.48
2022-08-17T21:50:32.811Z,99690.77
2022-08-17T21:53:50.155Z,99693.91
2022-08-17T21:56:41.831Z,99701.65
2022-08-17T21:59:40.066Z,99708.63
2022-08-17T22:02:34.660Z,99705.73
2022-08-17T22:05:51.763Z,99700.36
2022-08-17T22:08:40.502Z,99697.41
2022-08-17T22:11:28.772Z,99691.12
2022-08-17T22:14:23.343Z,99690.81
2022-08-17T22:17:27.099Z,99694.44
2022-08-17T22:20:20.852Z,99687.29
2022-08-17T22:23:33.242Z,99688.36
2022-08-17T22:26:25.603Z,99686.84
2022-08-17T22:29:57.672Z,99692.73
2022-08-17T22:32:49.451Z,99688.61
2022-08-17T22:35:43.722Z,99686.46
2022-08-17T22:38:33.169Z,99689.84
2022-08-17T22:41:37.209Z,99687.27
2022-08-17T22:44:51.251Z,99687.98
2022-08-17T22:47:41.305Z,99692.84
2022-08-17T22:50:33.042Z,99691.16
2022-08-17T22:53:42.675Z,99690.36
2022-08-17T22:56:51.501Z,99688.85
2022-08-17T22:59:51.144Z,99687.00
2022-08-17T23:02:50.273Z,99688.80
2022-08-17T23:06:10.732Z,99684.42
2022-08-17T23:08:58.796Z,99687.98
2022-08-17T23:11:51.007Z,99685.23
2022-08-17T23:14:42.579Z,99686.22
2022-08-17T23:17:37.121Z,99690.61
2022-08-17T23:20:25.359Z,99683.87
2022-08-17T23:23:14.531Z,99683.30
2022-08-17T23:26:02.578Z,99684.94
2022-08-17T23:28:50.846Z,99684.59
2022-08-17T23:31:39.778Z,99681.25
2022-08-17T23:34:28.946Z,99683.77
2022-08-17T23:37:20.791Z,99687.64
2022-08-17T23:40:09.741Z,99684.81
2022-08-17T23:42:58.334Z,99682.54
2022-08-17T23:45:46.838Z,99679.82
2022-08-17T23:48:37.357Z,99677.69
2022-08-17T23:51:35.969Z,99678.55
2022-08-17T23:54:33.772Z,99676.30
2022-08-17T23:57:33.637Z,99679.52
